Talmage, Utah
Current Conditions -  °F | °C
As of 4:53 AM on Monday 26 Jan 2015 (Local Time) from KVEL Reporting Station
Clear Clear  
Wind Chill: 21°   Ceiling: Unl
Heat Index: 21°   Visibility: 10mi
Dew Point: 16°   Wind: 3mph
Humidity: 81%   Direction: 10°N
Pressure: 30.46"   Gusts: NA
Location:  40.34°N, 110.43°W
Report Text: KVEL 261153Z AUTO 01003KT 10SM CLR M06/M09 A3046 RMK AO2 SLP339 T10611089 11022 21072 53010
Loading
Personal Weather Stations






























Interactive Weather Map New forecast layout! Learn more

10-Day Weather Forecast

Advertisements
Track Severe Weather on mobile